Time;durP1;ratioP1;P1;durP2;ratioP2;P2;SDS_P1;SDS_P2;PMS_P1;PMS_P2;Temp;Humidity;BMP_temperature;BMP_pressure;BME280_temperature;BME280_humidity;BME280_pressure;Samples;Min_cycle;Max_cycle;Signal;HPM_P1;HPM_P2
2024/01/03 00:01:21;;;;;;;1.08;0.68;;;17.10;76.50;;;;;;4991680;28;20084;-85
2024/01/03 00:03:47;;;;;;;1.40;0.77;;;17.10;76.40;;;;;;4995879;28;20432;-85
2024/01/03 00:06:14;;;;;;;1.75;0.77;;;17.10;76.40;;;;;;4993264;28;20058;-85
2024/01/03 00:08:39;;;;;;;2.55;1.02;;;17.10;76.20;;;;;;4987574;28;20067;-86
2024/01/03 00:11:05;;;;;;;1.88;1.00;;;17.10;76.10;;;;;;4993062;28;20042;-85
2024/01/03 00:15:59;;;;;;;1.48;1.05;;;17.10;76.20;;;;;;4977636;28;20179;-86
2024/01/03 00:18:40;;;;;;;1.05;0.60;;;17.10;75.90;;;;;;4988583;28;20050;-86
2024/01/03 00:21:06;;;;;;;2.25;0.80;;;17.10;76.10;;;;;;4965141;28;20034;-86
2024/01/03 00:23:36;;;;;;;0.70;0.57;;;17.10;75.90;;;;;;5004213;28;20074;-86
2024/01/03 00:26:02;;;;;;;1.27;0.82;;;17.00;75.80;;;;;;4981050;28;20034;-81
2024/01/03 00:28:27;;;;;;;1.70;0.85;;;17.10;75.90;;;;;;4971863;28;20055;-81
2024/01/03 00:30:53;;;;;;;2.10;0.80;;;17.10;75.80;;;;;;4963919;28;20046;-81
2024/01/03 00:33:18;;;;;;;1.65;0.90;;;17.10;76.00;;;;;;4989460;28;20065;-82
2024/01/03 00:35:44;;;;;;;0.88;0.68;;;17.00;75.70;;;;;;4978522;28;20043;-82
2024/01/03 00:38:10;;;;;;;1.45;0.65;;;17.10;75.70;;;;;;4982142;28;20062;-82
2024/01/03 00:40:52;;;;;;;1.13;0.80;;;17.00;75.50;;;;;;4995942;28;20046;-82
2024/01/03 00:43:17;;;;;;;1.15;0.90;;;17.10;75.60;;;;;;4977897;28;20148;-82
2024/01/03 00:45:43;;;;;;;0.90;0.63;;;17.00;75.60;;;;;;4976538;28;20125;-82
2024/01/03 00:48:08;;;;;;;0.93;0.60;;;17.00;75.50;;;;;;4982355;28;20081;-82
2024/01/03 00:50:34;;;;;;;1.50;0.88;;;17.00;75.60;;;;;;4978347;28;20047;-82
2024/01/03 00:52:59;;;;;;;1.13;0.63;;;17.00;75.50;;;;;;4979626;28;20073;-82
2024/01/03 00:55:25;;;;;;;2.15;0.90;;;17.00;75.40;;;;;;4992299;28;20069;-81
2024/01/03 00:57:50;;;;;;;2.15;0.85;;;17.00;76.20;;;;;;4961255;28;20562;-81
2024/01/03 01:00:16;;;;;;;0.88;0.65;;;17.00;75.40;;;;;;4968624;28;20419;-81
2024/01/03 01:02:43;;;;;;;1.00;0.85;;;17.00;75.40;;;;;;4994981;28;20129;-81
2024/01/03 01:05:09;;;;;;;0.85;0.57;;;17.00;75.30;;;;;;4974864;28;20540;-81
2024/01/03 01:07:34;;;;;;;1.48;0.63;;;17.00;75.30;;;;;;4997548;28;20485;-82
2024/01/03 01:10:00;;;;;;;1.55;1.00;;;17.00;75.30;;;;;;4982798;28;20050;-82
2024/01/03 01:12:25;;;;;;;1.00;0.60;;;17.00;75.30;;;;;;4990740;28;20038;-81
2024/01/03 01:14:51;;;;;;;1.45;0.70;;;17.00;75.30;;;;;;5000036;28;20124;-82
2024/01/03 01:17:16;;;;;;;0.98;0.70;;;17.00;75.30;;;;;;4997036;28;20034;-82
2024/01/03 01:19:42;;;;;;;2.30;0.95;;;17.00;75.40;;;;;;4996954;28;20724;-81
2024/01/03 01:22:08;;;;;;;0.95;0.65;;;17.00;75.40;;;;;;4980006;28;20039;-82
2024/01/03 01:24:33;;;;;;;1.88;1.05;;;16.90;75.20;;;;;;5015638;28;20482;-82
2024/01/03 01:26:59;;;;;;;1.00;0.60;;;17.00;75.20;;;;;;5002716;28;20041;-81
2024/01/03 01:29:24;;;;;;;1.08;0.95;;;16.90;75.10;;;;;;4978842;28;20558;-81
2024/01/03 01:31:50;;;;;;;1.88;0.77;;;16.90;75.10;;;;;;5000849;28;20046;-82
2024/01/03 01:34:15;;;;;;;1.17;0.90;;;17.00;75.10;;;;;;5001805;28;20033;-81
2024/01/03 01:36:42;;;;;;;1.48;0.60;;;17.00;75.00;;;;;;5001975;28;20041;-81
2024/01/03 01:39:07;;;;;;;1.25;0.77;;;16.90;75.10;;;;;;5004345;28;20391;-82
2024/01/03 01:41:33;;;;;;;1.27;0.68;;;16.90;75.00;;;;;;4980048;28;20092;-82
2024/01/03 01:43:59;;;;;;;1.40;0.80;;;16.90;75.00;;;;;;5001793;28;20508;-80
2024/01/03 01:46:24;;;;;;;0.68;0.50;;;16.90;75.70;;;;;;5000713;28;20389;-80
2024/01/03 01:48:50;;;;;;;1.52;0.52;;;16.90;75.10;;;;;;4986920;28;20079;-80
2024/01/03 01:51:15;;;;;;;1.20;0.90;;;16.90;74.90;;;;;;4998544;28;20238;-81
2024/01/03 01:53:41;;;;;;;0.95;0.65;;;16.90;74.90;;;;;;5014957;28;20037;-80
2024/01/03 01:56:07;;;;;;;1.27;0.70;;;16.90;74.70;;;;;;4998931;28;20499;-80
2024/01/03 01:58:33;;;;;;;1.15;0.70;;;16.90;74.70;;;;;;4996932;28;20074;-80
2024/01/03 02:00:58;;;;;;;1.00;0.70;;;17.00;74.80;;;;;;5002715;28;20117;-80
2024/01/03 02:03:24;;;;;;;1.65;0.73;;;17.00;74.70;;;;;;4982034;28;20050;-80
2024/01/03 02:05:49;;;;;;;1.23;0.93;;;16.90;74.70;;;;;;4983220;28;20125;-81
2024/01/03 02:08:15;;;;;;;1.50;0.70;;;16.90;74.80;;;;;;4998910;28;20121;-81
2024/01/03 02:10:40;;;;;;;1.65;0.70;;;16.90;74.90;;;;;;4998639;28;20381;-81
2024/01/03 02:13:06;;;;;;;1.15;0.70;;;16.90;74.80;;;;;;4996940;28;20092;-81
2024/01/03 02:15:32;;;;;;;1.23;0.57;;;16.90;74.80;;;;;;4979248;28;20042;-81
2024/01/03 02:17:58;;;;;;;0.68;0.60;;;16.90;74.80;;;;;;4973386;28;20534;-80
2024/01/03 02:20:23;;;;;;;1.38;0.85;;;16.90;74.90;;;;;;4995741;28;20042;-81
2024/01/03 02:22:49;;;;;;;1.40;0.70;;;16.90;75.00;;;;;;4991429;28;20074;-81
2024/01/03 02:25:15;;;;;;;1.92;1.00;;;16.90;74.90;;;;;;5003370;28;20413;-81
2024/01/03 02:27:40;;;;;;;1.33;0.70;;;16.90;74.90;;;;;;4964272;28;20045;-81
2024/01/03 02:30:08;;;;;;;1.48;1.00;;;16.90;74.90;;;;;;4997845;28;20046;-81
2024/01/03 02:32:34;;;;;;;2.03;0.85;;;16.90;74.90;;;;;;4972470;28;20043;-81
2024/01/03 02:35:00;;;;;;;1.25;0.80;;;16.90;75.00;;;;;;4991240;28;20038;-81
2024/01/03 02:37:25;;;;;;;1.40;0.80;;;16.80;74.90;;;;;;4988610;28;20500;-81
2024/01/03 02:39:51;;;;;;;1.40;0.77;;;16.90;74.90;;;;;;4975157;28;20073;-81
2024/01/03 02:42:16;;;;;;;1.40;0.70;;;16.80;74.80;;;;;;4989436;28;20054;-82
2024/01/03 02:44:42;;;;;;;1.08;0.60;;;16.80;74.80;;;;;;4988058;28;20499;-81
2024/01/03 02:47:07;;;;;;;1.52;0.60;;;16.90;74.80;;;;;;4991417;28;20035;-81
2024/01/03 02:49:33;;;;;;;1.48;0.75;;;16.90;74.80;;;;;;4997578;28;20096;-81
2024/01/03 02:52:00;;;;;;;0.70;0.50;;;16.80;74.90;;;;;;4984440;28;20045;-80
2024/01/03 02:54:26;;;;;;;1.17;0.60;;;16.80;74.80;;;;;;4988508;28;20078;-81
2024/01/03 02:56:53;;;;;;;0.93;0.43;;;16.80;74.80;;;;;;4992809;28;20526;-81
2024/01/03 02:59:19;;;;;;;2.85;0.85;;;16.80;75.00;;;;;;4989641;28;20069;-81
2024/01/03 03:01:44;;;;;;;1.63;0.90;;;16.80;74.90;;;;;;4997260;28;20050;-81
2024/01/03 03:04:10;;;;;;;1.73;1.10;;;16.80;74.80;;;;;;4997183;28;20050;-81
2024/01/03 03:06:36;;;;;;;1.15;0.80;;;16.80;74.80;;;;;;4994330;28;20046;-81
2024/01/03 03:09:01;;;;;;;0.90;0.63;;;16.80;74.90;;;;;;4997854;28;20427;-81
2024/01/03 03:11:27;;;;;;;1.13;0.55;;;16.80;75.00;;;;;;4985616;28;20096;-81
2024/01/03 03:13:52;;;;;;;2.47;1.42;;;16.80;74.90;;;;;;4971352;28;20065;-81
2024/01/03 03:16:19;;;;;;;1.02;0.50;;;16.80;74.90;;;;;;4999543;28;20153;-81
2024/01/03 03:18:45;;;;;;;2.15;0.75;;;16.80;74.80;;;;;;5005168;28;20049;-81
2024/01/03 03:21:10;;;;;;;1.45;0.70;;;16.80;74.90;;;;;;4991263;28;20044;-81
2024/01/03 03:23:36;;;;;;;1.00;0.70;;;16.80;74.90;;;;;;4977032;28;20043;-81
2024/01/03 03:26:03;;;;;;;1.45;0.90;;;16.80;74.90;;;;;;4960657;28;20033;-81
2024/01/03 03:28:28;;;;;;;1.35;0.60;;;16.80;74.80;;;;;;4992510;28;20086;-81
2024/01/03 03:30:54;;;;;;;1.10;0.70;;;16.80;74.80;;;;;;4982451;28;20065;-82
2024/01/03 03:33:19;;;;;;;1.45;0.65;;;16.80;74.80;;;;;;4993123;28;20046;-81
2024/01/03 03:35:45;;;;;;;1.23;0.77;;;16.80;74.80;;;;;;4969730;28;20044;-81
2024/01/03 03:38:10;;;;;;;2.88;0.98;;;16.80;74.80;;;;;;4974548;28;20031;-81
2024/01/03 03:40:36;;;;;;;1.55;0.90;;;16.80;74.80;;;;;;4982984;28;20046;-80
2024/01/03 03:43:01;;;;;;;1.13;0.70;;;16.80;74.90;;;;;;5006627;28;20496;-81
2024/01/03 03:45:27;;;;;;;0.70;0.60;;;16.80;74.80;;;;;;4980962;28;20060;-81
2024/01/03 03:47:53;;;;;;;1.10;0.57;;;16.80;74.80;;;;;;4993688;28;20054;-81
2024/01/03 03:50:18;;;;;;;1.45;1.00;;;16.80;74.80;;;;;;4993091;28;20082;-82
2024/01/03 03:52:44;;;;;;;1.70;0.90;;;16.80;74.70;;;;;;4985669;28;20046;-82
2024/01/03 03:55:15;;;;;;;1.48;0.70;;;16.80;74.60;;;;;;4998223;28;20070;-82
2024/01/03 03:57:40;;;;;;;1.45;0.60;;;16.80;74.60;;;;;;5012505;28;20500;-83
2024/01/03 04:00:07;;;;;;;1.90;0.73;;;16.80;74.50;;;;;;5010016;28;20091;-82
2024/01/03 04:02:32;;;;;;;1.70;0.85;;;16.80;74.60;;;;;;4982393;28;20054;-81
2024/01/03 04:04:58;;;;;;;2.10;0.73;;;16.80;74.60;;;;;;4969546;28;20038;-81
2024/01/03 04:07:24;;;;;;;1.88;1.17;;;16.70;75.50;;;;;;4995568;28;20178;-81
2024/01/03 04:09:49;;;;;;;0.93;0.65;;;16.80;74.60;;;;;;4979597;28;20046;-81
2024/01/03 04:12:15;;;;;;;1.45;0.82;;;16.80;74.60;;;;;;5017188;28;20045;-82
2024/01/03 04:14:40;;;;;;;1.77;0.88;;;16.70;74.60;;;;;;4991013;28;20043;-82
2024/01/03 04:17:06;;;;;;;1.75;0.75;;;16.70;74.70;;;;;;4999372;28;20042;-82
2024/01/03 04:19:31;;;;;;;1.60;0.80;;;16.80;74.70;;;;;;5001048;28;20037;-82
2024/01/03 04:22:00;;;;;;;1.35;0.80;;;16.80;74.70;;;;;;4989867;28;20076;-82
2024/01/03 04:24:26;;;;;;;1.83;0.93;;;16.80;74.70;;;;;;4998365;28;20579;-82
2024/01/03 04:26:55;;;;;;;1.35;0.68;;;16.80;74.60;;;;;;4997091;28;20587;-81
2024/01/03 04:29:20;;;;;;;0.98;0.70;;;16.80;74.60;;;;;;4996023;28;20572;-83
2024/01/03 04:31:46;;;;;;;0.90;0.40;;;16.80;74.60;;;;;;4998584;28;20054;-82
2024/01/03 04:34:12;;;;;;;1.10;0.43;;;16.80;74.70;;;;;;5001465;28;20041;-82
2024/01/03 04:36:37;;;;;;;1.50;0.85;;;16.80;74.60;;;;;;5002032;28;20042;-82
2024/01/03 04:39:03;;;;;;;1.10;0.77;;;16.80;74.70;;;;;;4999123;28;20443;-83
2024/01/03 04:41:29;;;;;;;1.35;0.65;;;16.80;74.70;;;;;;4983764;28;20034;-81
2024/01/03 04:43:54;;;;;;;1.15;0.70;;;16.70;74.70;;;;;;4988016;28;20050;-80
2024/01/03 04:46:20;;;;;;;1.15;0.73;;;16.70;74.80;;;;;;5003992;28;20033;-82
2024/01/03 04:48:45;;;;;;;1.55;0.90;;;16.80;74.80;;;;;;5011512;28;20071;-80
2024/01/03 04:51:11;;;;;;;2.05;0.90;;;16.70;74.80;;;;;;5002714;28;20048;-81
2024/01/03 04:53:37;;;;;;;1.40;1.10;;;16.70;74.80;;;;;;5003039;28;20053;-81
2024/01/03 04:56:03;;;;;;;1.10;0.68;;;16.70;74.80;;;;;;5005802;28;20052;-82
2024/01/03 04:58:29;;;;;;;1.83;0.70;;;16.70;74.90;;;;;;4648843;28;9999856;-81
2024/01/03 05:00:54;;;;;;;1.38;0.43;;;16.70;74.90;;;;;;4974647;28;20069;-81
2024/01/03 05:03:20;;;;;;;0.80;0.57;;;16.80;75.00;;;;;;5002523;28;20053;-80
2024/01/03 05:05:46;;;;;;;1.08;0.60;;;16.80;75.10;;;;;;4988402;28;20579;-81
2024/01/03 05:08:11;;;;;;;2.55;0.70;;;16.80;75.10;;;;;;4981951;28;20447;-80
2024/01/03 05:10:37;;;;;;;1.20;0.70;;;16.80;75.10;;;;;;4978639;28;20137;-81
2024/01/03 05:13:03;;;;;;;1.48;0.77;;;16.80;75.10;;;;;;4986922;28;20162;-81
2024/01/03 05:15:28;;;;;;;1.73;0.90;;;16.80;75.10;;;;;;4996730;28;20038;-81
2024/01/03 05:17:54;;;;;;;1.20;0.93;;;16.80;75.00;;;;;;4988127;28;20432;-81
2024/01/03 05:20:19;;;;;;;1.42;0.80;;;16.80;75.10;;;;;;4999547;28;20510;-80
2024/01/03 05:22:45;;;;;;;1.30;0.70;;;16.70;74.80;;;;;;4994280;28;20647;-81
2024/01/03 05:25:10;;;;;;;0.73;0.60;;;16.80;74.80;;;;;;4976506;28;20038;-81
2024/01/03 05:27:36;;;;;;;2.08;0.70;;;16.70;74.80;;;;;;4957431;28;20567;-81
2024/01/03 05:30:02;;;;;;;1.38;0.77;;;16.80;74.90;;;;;;4996914;28;20041;-81
2024/01/03 05:32:27;;;;;;;2.38;1.00;;;16.80;74.90;;;;;;4989216;28;20035;-82
2024/01/03 05:34:53;;;;;;;0.93;0.65;;;16.80;74.80;;;;;;4971527;28;20050;-81
2024/01/03 05:37:18;;;;;;;1.65;0.90;;;16.80;74.80;;;;;;4998913;28;20503;-81
2024/01/03 05:39:45;;;;;;;1.02;0.90;;;16.80;74.80;;;;;;5027645;28;20451;-81
2024/01/03 05:42:10;;;;;;;2.05;0.68;;;16.80;75.70;;;;;;4995639;28;20137;-81
2024/01/03 05:44:36;;;;;;;0.88;0.50;;;16.80;74.90;;;;;;5006612;28;20508;-81
2024/01/03 05:47:01;;;;;;;1.20;0.82;;;16.80;75.10;;;;;;5000677;28;20046;-82
2024/01/03 05:49:27;;;;;;;2.15;0.63;;;16.80;75.10;;;;;;4992657;28;20058;-81
2024/01/03 05:51:53;;;;;;;1.80;1.00;;;16.80;75.10;;;;;;4989710;28;20062;-81
2024/01/03 05:54:19;;;;;;;4.10;0.70;;;16.80;75.10;;;;;;4990107;28;20121;-81
2024/01/03 05:56:44;;;;;;;4.85;0.75;;;16.80;74.90;;;;;;4992503;28;20092;-79
2024/01/03 05:59:10;;;;;;;3.53;0.90;;;16.90;74.40;;;;;;4987924;28;20778;-80
2024/01/03 06:01:35;;;;;;;3.15;1.00;;;16.90;75.30;;;;;;4977305;28;20446;-80
2024/01/03 06:04:01;;;;;;;2.55;1.00;;;16.90;75.40;;;;;;4976910;28;20127;-80
2024/01/03 06:06:26;;;;;;;2.28;0.77;;;16.80;75.10;;;;;;4975538;28;20531;-80
2024/01/03 06:08:52;;;;;;;1.85;0.60;;;16.80;75.40;;;;;;4977820;28;20113;-80
2024/01/03 06:11:18;;;;;;;1.98;0.80;;;16.80;75.30;;;;;;4976106;28;20073;-81
2024/01/03 06:13:43;;;;;;;3.33;0.82;;;16.80;75.90;;;;;;4984647;28;20057;-80
2024/01/03 06:16:10;;;;;;;3.35;0.93;;;16.80;75.10;;;;;;4985547;28;20033;-81
2024/01/03 06:18:36;;;;;;;2.55;0.80;;;16.80;75.10;;;;;;4967939;28;20061;-81
2024/01/03 06:21:02;;;;;;;1.77;0.70;;;16.80;75.10;;;;;;4970518;28;20571;-81
2024/01/03 06:23:27;;;;;;;1.45;0.98;;;16.80;75.10;;;;;;4996683;28;20100;-81
2024/01/03 06:25:53;;;;;;;2.15;0.90;;;16.80;75.10;;;;;;4981847;28;20464;-80
2024/01/03 06:28:18;;;;;;;2.65;1.00;;;16.80;75.90;;;;;;4992033;28;20045;-80
2024/01/03 06:30:44;;;;;;;1.95;0.70;;;16.80;75.10;;;;;;4988404;28;20050;-80
2024/01/03 06:33:09;;;;;;;3.35;0.90;;;16.80;75.90;;;;;;4992938;28;20438;-80
2024/01/03 06:35:35;;;;;;;1.52;0.90;;;16.80;75.00;;;;;;4978778;28;20050;-80
2024/01/03 06:38:03;;;;;;;1.10;0.60;;;16.80;75.10;;;;;;4972346;28;20121;-80
2024/01/03 06:40:29;;;;;;;1.95;0.80;;;16.80;75.10;;;;;;4965653;28;20073;-81
2024/01/03 06:42:55;;;;;;;1.65;0.75;;;16.80;75.10;;;;;;4986701;28;20061;-80
2024/01/03 06:45:21;;;;;;;1.52;1.00;;;16.80;75.10;;;;;;4997894;28;20054;-80
2024/01/03 06:47:46;;;;;;;2.30;0.68;;;16.80;75.10;;;;;;4966790;28;20042;-80
2024/01/03 06:50:13;;;;;;;2.13;0.50;;;16.70;75.10;;;;;;4984704;28;20058;-80
2024/01/03 06:52:39;;;;;;;2.70;0.93;;;16.80;75.10;;;;;;5014995;28;20049;-80
2024/01/03 06:55:05;;;;;;;2.40;1.23;;;16.80;75.10;;;;;;4999195;28;20058;-81
2024/01/03 06:57:30;;;;;;;1.92;0.93;;;16.80;75.10;;;;;;4984656;28;20042;-81
2024/01/03 06:59:56;;;;;;;1.40;0.90;;;16.80;75.00;;;;;;4969468;28;20046;-80
2024/01/03 07:02:21;;;;;;;0.70;0.55;;;16.80;74.90;;;;;;4982910;28;20046;-80
2024/01/03 07:04:47;;;;;;;1.10;0.60;;;16.80;74.90;;;;;;4954439;28;20046;-80
2024/01/03 07:07:15;;;;;;;1.92;0.70;;;16.80;75.00;;;;;;4989776;28;20034;-80
2024/01/03 07:09:41;;;;;;;1.52;0.70;;;16.80;74.90;;;;;;4988156;28;20057;-80
2024/01/03 07:12:07;;;;;;;1.25;0.77;;;16.70;74.90;;;;;;4983453;28;20042;-80
2024/01/03 07:14:32;;;;;;;1.67;0.70;;;16.80;75.00;;;;;;4974737;28;20045;-80
2024/01/03 07:16:58;;;;;;;0.90;0.73;;;16.80;75.10;;;;;;4956725;28;20085;-81
2024/01/03 07:19:24;;;;;;;1.38;0.82;;;16.70;75.80;;;;;;4989066;28;20081;-81
2024/01/03 07:21:49;;;;;;;0.90;0.63;;;16.70;75.00;;;;;;4966620;28;20108;-80
2024/01/03 07:24:15;;;;;;;1.48;0.70;;;16.80;75.10;;;;;;4982472;28;20399;-80
2024/01/03 07:26:41;;;;;;;1.92;0.93;;;16.80;75.00;;;;;;4994418;28;20042;-81
2024/01/03 07:29:06;;;;;;;3.45;1.08;;;16.80;74.90;;;;;;4981358;28;20400;-80
2024/01/03 07:31:32;;;;;;;2.45;1.02;;;16.80;74.80;;;;;;5009749;28;20071;-81
2024/01/03 07:33:57;;;;;;;1.65;1.05;;;16.80;75.10;;;;;;4970605;28;20031;-81
2024/01/03 07:36:23;;;;;;;1.48;1.00;;;16.80;75.10;;;;;;4979645;28;20084;-81
2024/01/03 07:38:48;;;;;;;1.45;0.80;;;16.80;75.10;;;;;;4970613;28;20039;-80
2024/01/03 07:41:19;;;;;;;1.67;0.80;;;16.80;75.20;;;;;;4994781;28;20575;-80
2024/01/03 07:43:45;;;;;;;1.30;0.90;;;16.80;75.00;;;;;;4992589;28;20050;-80
2024/01/03 07:46:10;;;;;;;1.30;0.82;;;16.80;75.00;;;;;;4983801;28;20381;-79
2024/01/03 07:48:36;;;;;;;1.73;1.00;;;16.80;75.10;;;;;;4967530;28;20537;-80
2024/01/03 07:51:01;;;;;;;1.67;0.73;;;16.80;75.10;;;;;;4975664;28;20034;-83
2024/01/03 07:53:27;;;;;;;0.75;0.73;;;16.80;75.10;;;;;;4971742;28;20055;-82
2024/01/03 07:55:53;;;;;;;1.35;0.80;;;16.70;75.10;;;;;;4998176;28;20049;-82
2024/01/03 07:58:19;;;;;;;2.47;1.08;;;16.80;75.30;;;;;;4995406;28;20530;-82
2024/01/03 08:00:44;;;;;;;2.50;0.82;;;16.80;75.60;;;;;;5016070;28;20507;-82
2024/01/03 08:03:10;;;;;;;1.33;0.60;;;16.80;75.50;;;;;;5013381;28;20057;-83
2024/01/03 08:05:35;;;;;;;1.05;0.63;;;16.80;75.60;;;;;;4997406;28;20642;-83
2024/01/03 08:08:01;;;;;;;3.88;1.10;;;16.80;75.50;;;;;;5000231;28;20050;-83
2024/01/03 08:10:26;;;;;;;1.30;0.60;;;16.80;75.80;;;;;;4990975;28;20046;-83
2024/01/03 08:12:52;;;;;;;1.30;0.80;;;16.70;75.70;;;;;;4988516;28;20061;-82
2024/01/03 08:15:18;;;;;;;1.70;0.93;;;16.80;75.70;;;;;;4999864;28;20047;-82
2024/01/03 08:17:44;;;;;;;0.98;0.60;;;16.70;75.80;;;;;;4995127;28;20037;-83
2024/01/03 08:20:10;;;;;;;2.17;0.90;;;16.80;75.60;;;;;;4979007;28;20046;-83
2024/01/03 08:22:35;;;;;;;2.15;0.93;;;16.70;75.70;;;;;;5014066;28;20193;-83
2024/01/03 08:25:01;;;;;;;2.30;0.88;;;16.70;75.70;;;;;;5000342;28;20053;-83
2024/01/03 08:27:26;;;;;;;1.83;0.90;;;16.70;75.60;;;;;;4979179;28;20044;-83
2024/01/03 08:29:52;;;;;;;1.20;1.05;;;16.70;75.60;;;;;;4996947;28;20072;-83
2024/01/03 08:32:18;;;;;;;2.90;0.88;;;16.70;75.70;;;;;;4991422;28;20042;-83
2024/01/03 08:34:46;;;;;;;2.53;0.70;;;16.70;75.60;;;;;;4997658;28;20053;-83
2024/01/03 08:37:12;;;;;;;1.65;0.85;;;16.70;75.60;;;;;;4983088;28;20044;-83
2024/01/03 08:39:37;;;;;;;3.42;1.02;;;16.70;75.70;;;;;;5010774;28;20045;-83
2024/01/03 08:42:03;;;;;;;0.98;0.88;;;16.70;75.60;;;;;;4981172;28;20048;-83
2024/01/03 08:44:29;;;;;;;1.27;0.85;;;16.70;75.50;;;;;;5013822;28;20558;-82
2024/01/03 08:46:55;;;;;;;1.55;0.65;;;16.70;75.50;;;;;;4994829;28;20514;-83
2024/01/03 08:49:20;;;;;;;2.17;0.70;;;16.70;75.50;;;;;;4998638;28;20080;-83
2024/01/03 08:51:46;;;;;;;1.35;0.70;;;16.70;75.50;;;;;;5011217;28;20042;-83
2024/01/03 08:54:12;;;;;;;1.08;0.80;;;16.70;75.50;;;;;;4995350;28;20073;-83
2024/01/03 08:56:39;;;;;;;2.38;1.15;;;16.70;75.50;;;;;;4996030;28;20088;-83
2024/01/03 08:59:05;;;;;;;1.45;0.80;;;16.70;75.40;;;;;;4999595;28;20044;-83
2024/01/03 09:01:34;;;;;;;1.58;0.60;;;16.70;76.30;;;;;;4975386;28;20587;-82
2024/01/03 09:03:59;;;;;;;1.17;0.85;;;16.70;75.50;;;;;;4984262;28;20037;-82
2024/01/03 09:06:25;;;;;;;2.65;1.08;;;16.70;75.40;;;;;;5018805;28;20091;-83
2024/01/03 09:08:51;;;;;;;2.92;1.33;;;16.70;75.30;;;;;;5019351;28;20033;-82
2024/01/03 09:11:18;;;;;;;2.10;0.80;;;16.70;76.00;;;;;;4998855;28;20517;-83
2024/01/03 09:13:46;;;;;;;1.35;1.00;;;16.70;75.20;;;;;;4976160;28;20577;-83
2024/01/03 09:16:12;;;;;;;2.40;0.85;;;16.70;75.30;;;;;;4988392;28;20080;-83
2024/01/03 09:18:37;;;;;;;0.85;0.77;;;16.70;75.20;;;;;;4999512;28;20058;-83
2024/01/03 09:21:03;;;;;;;4.78;1.20;;;16.70;75.20;;;;;;4983145;28;20045;-83
2024/01/03 09:23:29;;;;;;;3.00;1.20;;;16.70;75.10;;;;;;4997967;28;20447;-82
2024/01/03 09:25:55;;;;;;;1.20;0.70;;;16.70;75.00;;;;;;4984223;28;20049;-83
2024/01/03 09:28:24;;;;;;;1.30;0.80;;;16.70;75.90;;;;;;4997893;28;20035;-83
2024/01/03 09:30:50;;;;;;;2.90;0.90;;;16.70;75.10;;;;;;5014061;28;20131;-82
2024/01/03 09:33:15;;;;;;;1.42;0.82;;;16.70;75.10;;;;;;4992068;28;20476;-83
2024/01/03 09:35:41;;;;;;;2.13;0.88;;;16.70;75.10;;;;;;4971032;28;20058;-83
2024/01/03 09:38:07;;;;;;;1.17;0.80;;;16.70;75.10;;;;;;4991152;28;20045;-82
2024/01/03 09:40:33;;;;;;;2.15;0.90;;;16.70;75.20;;;;;;4982366;28;20041;-82
2024/01/03 09:43:02;;;;;;;1.50;0.70;;;16.70;75.10;;;;;;4983846;28;20128;-82
2024/01/03 09:45:29;;;;;;;1.65;1.05;;;16.70;75.00;;;;;;4982349;28;20492;-82
2024/01/03 09:47:54;;;;;;;2.58;0.88;;;16.70;75.10;;;;;;4998996;28;20041;-82
2024/01/03 09:50:21;;;;;;;2.90;0.88;;;16.70;74.80;;;;;;4976306;28;20519;-82
2024/01/03 09:52:46;;;;;;;1.88;1.27;;;16.70;74.90;;;;;;5001821;28;20056;-82
2024/01/03 09:55:12;;;;;;;1.95;0.70;;;16.70;75.10;;;;;;5001556;28;20042;-82
2024/01/03 09:57:38;;;;;;;1.52;0.80;;;16.70;75.00;;;;;;4984644;28;20068;-82
2024/01/03 10:00:05;;;;;;;1.30;0.88;;;16.70;75.00;;;;;;5000002;28;20064;-83
2024/01/03 10:02:30;;;;;;;2.38;0.95;;;16.70;75.00;;;;;;4981081;28;20053;-82
2024/01/03 10:04:56;;;;;;;3.80;0.85;;;16.70;75.00;;;;;;4999438;28;20495;-82
2024/01/03 10:07:34;;;;;;;1.10;0.60;;;16.70;75.10;;;;;;4985102;28;20513;-83
2024/01/03 10:10:00;;;;;;;2.05;0.80;;;16.70;75.10;;;;;;4983951;28;20052;-83
2024/01/03 10:12:29;;;;;;;2.10;1.08;;;16.70;75.00;;;;;;4998976;28;20046;-83
2024/01/03 10:14:54;;;;;;;2.15;0.90;;;16.70;75.00;;;;;;4983401;28;20072;-83
2024/01/03 10:17:20;;;;;;;1.60;0.90;;;16.60;75.00;;;;;;5001095;28;20503;-83
2024/01/03 10:19:46;;;;;;;2.72;0.88;;;16.70;74.90;;;;;;5004244;28;20034;-82
2024/01/03 10:22:11;;;;;;;0.88;0.55;;;16.70;74.80;;;;;;4998493;28;20037;-82
2024/01/03 10:24:42;;;;;;;1.27;0.68;;;16.70;74.90;;;;;;4999968;28;20033;-83
2024/01/03 10:27:09;;;;;;;2.50;0.68;;;16.70;74.60;;;;;;4987179;28;20404;-83
2024/01/03 10:29:35;;;;;;;1.67;0.60;;;16.70;74.60;;;;;;4997403;28;20120;-82
2024/01/03 10:32:03;;;;;;;1.75;1.00;;;16.70;74.60;;;;;;4976687;28;20040;-83
2024/01/03 10:34:29;;;;;;;0.98;0.77;;;16.70;74.40;;;;;;4978043;28;20058;-82
2024/01/03 10:36:55;;;;;;;1.48;0.90;;;16.70;75.40;;;;;;4997249;28;20042;-83
2024/01/03 10:39:21;;;;;;;1.40;0.73;;;16.70;74.60;;;;;;4996748;28;20720;-83
2024/01/03 10:41:47;;;;;;;0.80;0.50;;;16.70;74.70;;;;;;4978718;28;20500;-83
2024/01/03 10:44:14;;;;;;;0.70;0.60;;;16.70;74.80;;;;;;4997928;28;20692;-83
2024/01/03 10:46:47;;;;;;;1.20;0.70;;;16.70;74.60;;;;;;5015347;28;20030;-83
2024/01/03 10:49:13;;;;;;;1.08;0.68;;;16.70;74.60;;;;;;4999693;28;20995;-83
2024/01/03 10:51:40;;;;;;;0.98;0.50;;;16.70;74.70;;;;;;5001305;28;20523;-83
2024/01/03 10:54:15;;;;;;;1.00;0.65;;;16.70;74.80;;;;;;4979317;28;20034;-82
2024/01/03 10:56:49;;;;;;;1.58;0.80;;;16.70;74.60;;;;;;4985913;28;20056;-83
2024/01/03 10:59:15;;;;;;;0.88;0.50;;;16.70;74.60;;;;;;4983902;28;20128;-82
2024/01/03 11:01:56;;;;;;;1.50;0.85;;;16.70;74.40;;;;;;5000008;28;20492;-83
2024/01/03 11:04:23;;;;;;;1.63;0.65;;;16.70;74.40;;;;;;4954567;28;20076;-83
2024/01/03 11:06:53;;;;;;;1.50;0.60;;;16.70;74.40;;;;;;4987711;28;20046;-83
2024/01/03 11:09:19;;;;;;;1.50;0.73;;;16.80;74.40;;;;;;4992966;28;20084;-83
2024/01/03 11:11:45;;;;;;;0.93;0.63;;;16.70;74.40;;;;;;5000243;28;20559;-83
2024/01/03 11:14:16;;;;;;;1.35;0.60;;;16.70;74.60;;;;;;4993622;28;20116;-83
2024/01/03 11:16:42;;;;;;;1.05;0.60;;;16.70;74.30;;;;;;4995671;28;20045;-83
2024/01/03 11:19:08;;;;;;;1.83;0.88;;;16.70;74.20;;;;;;4987734;28;20057;-84
2024/01/03 11:21:36;;;;;;;1.10;0.50;;;16.80;75.00;;;;;;4980608;28;20104;-84
2024/01/03 11:24:20;;;;;;;1.52;0.70;;;16.80;74.00;;;;;;4990143;28;20424;-83
2024/01/03 11:26:52;;;;;;;1.00;0.60;;;16.80;73.90;;;;;;4991603;28;20165;-82
2024/01/03 11:29:41;;;;;;;0.95;0.60;;;16.80;74.00;;;;;;4991269;28;20040;-82
2024/01/03 11:32:12;;;;;;;0.80;0.60;;;16.80;73.90;;;;;;5015627;28;20454;-83
2024/01/03 11:34:44;;;;;;;0.98;0.50;;;16.80;73.70;;;;;;4986157;28;20042;-82
2024/01/03 11:37:18;;;;;;;1.25;0.60;;;16.80;74.00;;;;;;4975678;28;20073;-83
2024/01/03 11:39:46;;;;;;;1.02;0.50;;;16.80;74.00;;;;;;5008592;28;20069;-83
2024/01/03 11:42:18;;;;;;;1.55;0.80;;;16.80;74.00;;;;;;4987101;28;20045;-83
2024/01/03 11:44:44;;;;;;;0.80;0.40;;;16.80;73.80;;;;;;4992262;28;20054;-83
2024/01/03 11:47:11;;;;;;;0.80;0.50;;;16.90;73.90;;;;;;4980595;28;20046;-83
2024/01/03 11:49:37;;;;;;;0.93;0.63;;;16.80;73.90;;;;;;4977457;28;20134;-83
2024/01/03 11:52:02;;;;;;;0.88;0.65;;;16.80;74.10;;;;;;5003276;28;20113;-83
2024/01/03 11:54:28;;;;;;;2.00;0.80;;;16.80;74.10;;;;;;4981389;28;20127;-82
2024/01/03 11:56:56;;;;;;;1.38;0.70;;;16.80;73.80;;;;;;4998574;28;20064;-83
2024/01/03 11:59:25;;;;;;;0.40;0.40;;;16.80;73.70;;;;;;4981494;28;20041;-82
2024/01/03 12:01:58;;;;;;;0.65;0.45;;;16.90;73.40;;;;;;4979443;28;20104;-83
2024/01/03 12:04:23;;;;;;;1.02;0.70;;;16.90;73.40;;;;;;4983398;28;20116;-83
2024/01/03 12:06:49;;;;;;;1.15;0.50;;;16.80;73.70;;;;;;4997109;28;20120;-83
2024/01/03 12:09:16;;;;;;;1.20;0.70;;;16.80;73.90;;;;;;4999329;28;20052;-82
2024/01/03 12:11:41;;;;;;;1.45;0.68;;;16.80;73.80;;;;;;4999295;28;20571;-82
2024/01/03 12:14:07;;;;;;;1.20;0.40;;;16.80;73.80;;;;;;4981952;28;20046;-83
2024/01/03 12:16:44;;;;;;;1.60;0.55;;;16.80;73.70;;;;;;5013882;28;20116;-83
2024/01/03 12:19:09;;;;;;;1.00;0.50;;;16.80;73.70;;;;;;4999496;28;20030;-83
2024/01/03 12:21:35;;;;;;;1.13;0.43;;;16.80;73.50;;;;;;4976042;28;20045;-82
2024/01/03 12:24:01;;;;;;;0.65;0.43;;;16.80;73.30;;;;;;4979044;28;20037;-83
2024/01/03 12:26:27;;;;;;;1.25;0.40;;;16.90;73.30;;;;;;4975516;28;20042;-83
2024/01/03 12:29:02;;;;;;;1.33;0.77;;;16.80;73.40;;;;;;5015112;28;20045;-83
2024/01/03 12:31:28;;;;;;;1.05;0.52;;;16.80;73.60;;;;;;4998912;28;20052;-83
2024/01/03 12:34:03;;;;;;;2.03;0.50;;;16.80;73.50;;;;;;4990658;28;20120;-82
2024/01/03 12:36:29;;;;;;;1.33;0.40;;;16.90;73.60;;;;;;4972899;28;22237;-84
2024/01/03 12:38:58;;;;;;;0.50;0.43;;;16.90;73.40;;;;;;4989133;28;20121;-82
2024/01/03 12:41:24;;;;;;;0.77;0.40;;;16.90;73.80;;;;;;4988771;28;20030;-82
2024/01/03 12:43:49;;;;;;;1.73;0.68;;;16.90;74.40;;;;;;4958124;28;20054;-83
2024/01/03 12:46:15;;;;;;;1.58;0.50;;;16.90;75.70;;;;;;4984927;28;20041;-80